sensor_id;sensor_type;location;lat;lon;timestamp;pressure;altitude;pressure_sealevel;temperature;humidity
16331;BME280;8275;48.206;16.340;2023-09-19T00:00:44;98650.22;;;25.89;42.17
16331;BME280;8275;48.206;16.340;2023-09-19T00:03:15;98661.56;;;25.73;42.73
16331;BME280;8275;48.206;16.340;2023-09-19T00:05:44;98666.50;;;25.60;43.07
16331;BME280;8275;48.206;16.340;2023-09-19T00:08:13;98661.50;;;25.50;43.27
16331;BME280;8275;48.206;16.340;2023-09-19T00:10:44;98670.06;;;25.42;43.50
16331;BME280;8275;48.206;16.340;2023-09-19T00:13:12;98667.94;;;25.35;44.36
16331;BME280;8275;48.206;16.340;2023-09-19T00:15:44;98680.94;;;25.24;45.62
16331;BME280;8275;48.206;16.340;2023-09-19T00:18:17;98681.81;;;25.09;46.11
16331;BME280;8275;48.206;16.340;2023-09-19T00:20:46;98687.53;;;24.97;46.72
16331;BME280;8275;48.206;16.340;2023-09-19T00:23:17;98689.53;;;24.81;47.21
16331;BME280;8275;48.206;16.340;2023-09-19T00:25:49;98698.28;;;24.64;47.78
16331;BME280;8275;48.206;16.340;2023-09-19T00:28:18;98691.88;;;24.48;48.37
16331;BME280;8275;48.206;16.340;2023-09-19T00:30:48;98697.47;;;24.32;48.90
16331;BME280;8275;48.206;16.340;2023-09-19T00:33:18;98685.47;;;24.16;49.82
16331;BME280;8275;48.206;16.340;2023-09-19T00:35:48;98689.75;;;23.98;51.24
16331;BME280;8275;48.206;16.340;2023-09-19T00:38:17;98692.75;;;23.77;51.87
16331;BME280;8275;48.206;16.340;2023-09-19T00:40:50;98696.59;;;23.57;52.13
16331;BME280;8275;48.206;16.340;2023-09-19T00:43:19;98704.19;;;23.44;52.45
16331;BME280;8275;48.206;16.340;2023-09-19T00:45:51;98707.81;;;23.33;53.36
16331;BME280;8275;48.206;16.340;2023-09-19T00:48:22;98715.97;;;23.26;53.53
16331;BME280;8275;48.206;16.340;2023-09-19T00:50:52;98709.38;;;23.18;53.78
16331;BME280;8275;48.206;16.340;2023-09-19T00:53:23;98707.16;;;23.12;54.05
16331;BME280;8275;48.206;16.340;2023-09-19T00:55:55;98704.94;;;23.05;54.76
16331;BME280;8275;48.206;16.340;2023-09-19T00:58:24;98706.81;;;23.01;54.93
16331;BME280;8275;48.206;16.340;2023-09-19T01:00:53;98707.53;;;22.98;55.19
16331;BME280;8275;48.206;16.340;2023-09-19T01:03:23;98714.63;;;22.95;55.79
16331;BME280;8275;48.206;16.340;2023-09-19T01:05:52;98713.38;;;22.93;55.67
16331;BME280;8275;48.206;16.340;2023-09-19T01:08:20;98712.88;;;22.91;55.99
16331;BME280;8275;48.206;16.340;2023-09-19T01:10:56;98716.72;;;22.86;55.61
16331;BME280;8275;48.206;16.340;2023-09-19T01:13:40;98713.84;;;22.83;55.81
16331;BME280;8275;48.206;16.340;2023-09-19T01:16:19;98709.75;;;22.80;55.62
16331;BME280;8275;48.206;16.340;2023-09-19T01:19:12;98716.03;;;22.77;55.81
16331;BME280;8275;48.206;16.340;2023-09-19T01:21:57;98720.00;;;22.76;55.69
16331;BME280;8275;48.206;16.340;2023-09-19T01:28:20;98721.88;;;22.72;55.90
16331;BME280;8275;48.206;16.340;2023-09-19T01:30:59;98712.31;;;22.73;55.77
16331;BME280;8275;48.206;16.340;2023-09-19T01:33:54;98721.53;;;22.74;55.56
16331;BME280;8275;48.206;16.340;2023-09-19T01:36:28;98713.59;;;22.76;55.65
16331;BME280;8275;48.206;16.340;2023-09-19T01:38:58;98712.78;;;22.75;55.62
16331;BME280;8275;48.206;16.340;2023-09-19T01:41:55;98715.00;;;22.70;55.47
16331;BME280;8275;48.206;16.340;2023-09-19T01:44:48;98723.72;;;22.68;55.51
16331;BME280;8275;48.206;16.340;2023-09-19T01:47:31;98722.44;;;22.66;55.59
16331;BME280;8275;48.206;16.340;2023-09-19T01:50:13;98715.34;;;22.56;56.30
16331;BME280;8275;48.206;16.340;2023-09-19T01:52:51;98722.66;;;22.49;57.02
16331;BME280;8275;48.206;16.340;2023-09-19T01:55:23;98718.31;;;22.39;57.55
16331;BME280;8275;48.206;16.340;2023-09-19T01:58:04;98711.91;;;22.26;57.87
16331;BME280;8275;48.206;16.340;2023-09-19T02:00:37;98706.06;;;22.19;58.11
16331;BME280;8275;48.206;16.340;2023-09-19T02:03:09;98720.13;;;22.11;59.01
16331;BME280;8275;48.206;16.340;2023-09-19T02:05:38;98722.66;;;22.04;59.50
16331;BME280;8275;48.206;16.340;2023-09-19T02:08:07;98716.03;;;21.96;60.22
16331;BME280;8275;48.206;16.340;2023-09-19T02:10:36;98714.97;;;21.89;60.68
16331;BME280;8275;48.206;16.340;2023-09-19T02:13:05;98716.28;;;21.83;61.03
16331;BME280;8275;48.206;16.340;2023-09-19T02:15:33;98706.16;;;21.78;61.54
16331;BME280;8275;48.206;16.340;2023-09-19T02:18:06;98709.66;;;21.75;61.81
16331;BME280;8275;48.206;16.340;2023-09-19T02:20:35;98707.19;;;21.74;62.14
16331;BME280;8275;48.206;16.340;2023-09-19T02:23:04;98705.13;;;21.71;62.41
16331;BME280;8275;48.206;16.340;2023-09-19T02:25:33;98703.81;;;21.68;62.91
16331;BME280;8275;48.206;16.340;2023-09-19T02:28:02;98704.66;;;21.68;63.24
16331;BME280;8275;48.206;16.340;2023-09-19T02:30:32;98716.59;;;21.69;63.69
16331;BME280;8275;48.206;16.340;2023-09-19T02:33:01;98717.41;;;21.69;63.74
16331;BME280;8275;48.206;16.340;2023-09-19T02:35:32;98716.28;;;21.71;63.63
16331;BME280;8275;48.206;16.340;2023-09-19T02:38:03;98712.66;;;21.70;63.97
16331;BME280;8275;48.206;16.340;2023-09-19T02:40:33;98721.50;;;21.72;64.00
16331;BME280;8275;48.206;16.340;2023-09-19T02:43:04;98730.31;;;21.74;64.37
16331;BME280;8275;48.206;16.340;2023-09-19T02:45:34;98729.66;;;21.77;64.45
16331;BME280;8275;48.206;16.340;2023-09-19T02:48:03;98734.56;;;21.80;64.32
16331;BME280;8275;48.206;16.340;2023-09-19T02:50:34;98737.81;;;21.82;64.85
16331;BME280;8275;48.206;16.340;2023-09-19T02:53:03;98738.78;;;21.86;64.86
16331;BME280;8275;48.206;16.340;2023-09-19T02:55:33;98733.66;;;21.88;64.82
16331;BME280;8275;48.206;16.340;2023-09-19T02:58:03;98733.31;;;21.90;64.80
16331;BME280;8275;48.206;16.340;2023-09-19T03:00:34;98733.81;;;21.92;65.38
16331;BME280;8275;48.206;16.340;2023-09-19T03:03:04;98727.53;;;21.95;65.13
16331;BME280;8275;48.206;16.340;2023-09-19T03:05:36;98732.44;;;21.98;65.13
16331;BME280;8275;48.206;16.340;2023-09-19T03:08:06;98730.94;;;22.00;65.66
16331;BME280;8275;48.206;16.340;2023-09-19T03:10:34;98733.81;;;22.04;65.55
16331;BME280;8275;48.206;16.340;2023-09-19T03:13:04;98726.75;;;22.06;65.32
16331;BME280;8275;48.206;16.340;2023-09-19T03:15:36;98735.59;;;22.08;65.39
16331;BME280;8275;48.206;16.340;2023-09-19T03:18:11;98731.28;;;22.11;65.73
16331;BME280;8275;48.206;16.340;2023-09-19T03:20:41;98740.47;;;22.11;65.42
16331;BME280;8275;48.206;16.340;2023-09-19T03:23:10;98728.97;;;22.13;65.86
16331;BME280;8275;48.206;16.340;2023-09-19T03:25:40;98737.00;;;22.14;65.73
16331;BME280;8275;48.206;16.340;2023-09-19T03:28:09;98737.00;;;22.14;65.50
16331;BME280;8275;48.206;16.340;2023-09-19T03:30:38;98748.97;;;22.15;65.66
16331;BME280;8275;48.206;16.340;2023-09-19T03:33:07;98737.47;;;22.16;65.92
16331;BME280;8275;48.206;16.340;2023-09-19T03:35:35;98747.47;;;22.17;65.92
16331;BME280;8275;48.206;16.340;2023-09-19T03:38:06;98741.88;;;22.17;65.77
16331;BME280;8275;48.206;16.340;2023-09-19T03:40:34;98740.38;;;22.20;65.67
16331;BME280;8275;48.206;16.340;2023-09-19T03:43:05;98748.41;;;22.21;65.68
16331;BME280;8275;48.206;16.340;2023-09-19T03:45:34;98740.84;;;22.22;65.86
16331;BME280;8275;48.206;16.340;2023-09-19T03:48:08;98746.09;;;22.23;65.63
16331;BME280;8275;48.206;16.340;2023-09-19T03:50:37;98753.06;;;22.29;66.17
16331;BME280;8275;48.206;16.340;2023-09-19T03:53:07;98738.44;;;22.32;66.13
16331;BME280;8275;48.206;16.340;2023-09-19T03:55:36;98742.97;;;22.37;66.01
16331;BME280;8275;48.206;16.340;2023-09-19T03:58:06;98745.09;;;22.40;66.39
16331;BME280;8275;48.206;16.340;2023-09-19T04:00:34;98751.94;;;22.43;65.86
16331;BME280;8275;48.206;16.340;2023-09-19T04:03:05;98746.47;;;22.46;66.10
16331;BME280;8275;48.206;16.340;2023-09-19T04:05:35;98747.78;;;22.49;65.83
16331;BME280;8275;48.206;16.340;2023-09-19T04:08:04;98751.03;;;22.51;65.76
16331;BME280;8275;48.206;16.340;2023-09-19T04:10:34;98757.88;;;22.53;65.74
16331;BME280;8275;48.206;16.340;2023-09-19T04:13:03;98760.78;;;22.57;66.14
16331;BME280;8275;48.206;16.340;2023-09-19T04:15:32;98763.25;;;22.58;65.82
16331;BME280;8275;48.206;16.340;2023-09-19T04:18:00;98772.13;;;22.60;65.82
16331;BME280;8275;48.206;16.340;2023-09-19T04:20:30;98772.94;;;22.61;64.84
16331;BME280;8275;48.206;16.340;2023-09-19T04:22:59;98769.63;;;22.59;64.20
16331;BME280;8275;48.206;16.340;2023-09-19T04:25:28;98779.53;;;22.56;64.34
16331;BME280;8275;48.206;16.340;2023-09-19T04:27:58;98793.50;;;22.56;64.28
16331;BME280;8275;48.206;16.340;2023-09-19T04:30:26;98791.03;;;22.55;64.20
16331;BME280;8275;48.206;16.340;2023-09-19T04:32:55;98795.00;;;22.54;63.49
16331;BME280;8275;48.206;16.340;2023-09-19T04:35:24;98810.13;;;22.53;63.81
16331;BME280;8275;48.206;16.340;2023-09-19T04:37:52;98811.25;;;22.52;63.57
16331;BME280;8275;48.206;16.340;2023-09-19T04:40:21;98818.03;;;22.51;63.61
16331;BME280;8275;48.206;16.340;2023-09-19T04:42:53;98821.97;;;22.50;63.60
16331;BME280;8275;48.206;16.340;2023-09-19T04:45:26;98820.66;;;22.47;62.78
16331;BME280;8275;48.206;16.340;2023-09-19T04:47:55;98819.41;;;22.45;62.66
16331;BME280;8275;48.206;16.340;2023-09-19T04:50:24;98819.28;;;22.41;62.81
16331;BME280;8275;48.206;16.340;2023-09-19T04:52:55;98812.75;;;22.37;62.59
16331;BME280;8275;48.206;16.340;2023-09-19T04:55:24;98819.69;;;22.31;62.72
16331;BME280;8275;48.206;16.340;2023-09-19T04:57:53;98828.78;;;22.28;62.47
16331;BME280;8275;48.206;16.340;2023-09-19T05:00:24;98827.03;;;22.23;62.32
16331;BME280;8275;48.206;16.340;2023-09-19T05:02:57;98847.22;;;22.20;62.36
16331;BME280;8275;48.206;16.340;2023-09-19T05:05:25;98840.81;;;22.20;62.40
16331;BME280;8275;48.206;16.340;2023-09-19T05:07:54;98852.34;;;22.18;62.46
16331;BME280;8275;48.206;16.340;2023-09-19T05:10:23;98851.88;;;22.16;61.88
16331;BME280;8275;48.206;16.340;2023-09-19T05:12:53;98853.22;;;22.10;61.99
16331;BME280;8275;48.206;16.340;2023-09-19T05:15:22;98853.09;;;22.07;62.30
16331;BME280;8275;48.206;16.340;2023-09-19T05:17:52;98858.53;;;22.03;62.75
16331;BME280;8275;48.206;16.340;2023-09-19T05:20:25;98851.19;;;21.99;63.14
16331;BME280;8275;48.206;16.340;2023-09-19T05:23:01;98864.06;;;21.91;63.05
16331;BME280;8275;48.206;16.340;2023-09-19T05:25:31;98857.19;;;21.89;63.72
16331;BME280;8275;48.206;16.340;2023-09-19T05:28:05;98859.50;;;21.87;63.77
16331;BME280;8275;48.206;16.340;2023-09-19T05:30:35;98857.03;;;21.85;64.53
16331;BME280;8275;48.206;16.340;2023-09-19T05:33:07;98857.03;;;21.85;64.44
16331;BME280;8275;48.206;16.340;2023-09-19T05:35:36;98864.91;;;21.83;65.00
16331;BME280;8275;48.206;16.340;2023-09-19T05:38:07;98862.81;;;21.80;64.98
16331;BME280;8275;48.206;16.340;2023-09-19T05:40:37;98855.13;;;21.77;65.24
16331;BME280;8275;48.206;16.340;2023-09-19T05:43:06;98859.06;;;21.76;65.66
16331;BME280;8275;48.206;16.340;2023-09-19T05:45:35;98852.69;;;21.76;65.76
16331;BME280;8275;48.206;16.340;2023-09-19T05:48:11;98861.38;;;21.74;66.08
16331;BME280;8275;48.206;16.340;2023-09-19T05:50:43;98867.41;;;21.76;66.08
16331;BME280;8275;48.206;16.340;2023-09-19T05:53:14;98868.25;;;21.77;66.12
16331;BME280;8275;48.206;16.340;2023-09-19T05:55:43;98858.25;;;21.76;66.19
16331;BME280;8275;48.206;16.340;2023-09-19T05:58:12;98861.03;;;21.76;66.37
16331;BME280;8275;48.206;16.340;2023-09-19T06:00:42;98853.47;;;21.76;66.39
16331;BME280;8275;48.206;16.340;2023-09-19T06:03:13;98857.09;;;21.77;66.57
16331;BME280;8275;48.206;16.340;2023-09-19T06:05:42;98862.31;;;21.78;66.34
16331;BME280;8275;48.206;16.340;2023-09-19T06:08:11;98858.03;;;21.81;66.46
16331;BME280;8275;48.206;16.340;2023-09-19T06:10:39;98854.09;;;21.82;66.71
16331;BME280;8275;48.206;16.340;2023-09-19T06:13:08;98857.72;;;21.82;66.81
16331;BME280;8275;48.206;16.340;2023-09-19T06:15:38;98859.03;;;21.85;66.75
16331;BME280;8275;48.206;16.340;2023-09-19T06:18:12;98865.56;;;21.89;67.25
16331;BME280;8275;48.206;16.340;2023-09-19T06:20:47;98871.88;;;21.98;67.22
16331;BME280;8275;48.206;16.340;2023-09-19T06:23:18;98881.34;;;22.05;67.51
16331;BME280;8275;48.206;16.340;2023-09-19T06:25:48;98884.88;;;22.14;67.86
16331;BME280;8275;48.206;16.340;2023-09-19T06:28:17;98889.56;;;22.22;67.39
16331;BME280;8275;48.206;16.340;2023-09-19T06:30:51;98885.06;;;22.30;66.91
16331;BME280;8275;48.206;16.340;2023-09-19T06:33:21;98898.09;;;22.38;66.92
16331;BME280;8275;48.206;16.340;2023-09-19T06:35:50;98890.81;;;22.46;66.69
16331;BME280;8275;48.206;16.340;2023-09-19T06:38:20;98891.06;;;22.53;66.70
16331;BME280;8275;48.206;16.340;2023-09-19T06:40:48;98885.88;;;22.63;66.72
16331;BME280;8275;48.206;16.340;2023-09-19T06:43:17;98895.47;;;22.74;67.08
16331;BME280;8275;48.206;16.340;2023-09-19T06:45:46;98898.28;;;22.86;67.05
16331;BME280;8275;48.206;16.340;2023-09-19T06:48:15;98896.69;;;22.97;66.86
16331;BME280;8275;48.206;16.340;2023-09-19T06:50:45;98901.50;;;23.09;67.26
16331;BME280;8275;48.206;16.340;2023-09-19T06:53:15;98905.78;;;23.19;66.64
16331;BME280;8275;48.206;16.340;2023-09-19T06:55:43;98913.25;;;23.27;66.45
16331;BME280;8275;48.206;16.340;2023-09-19T06:58:12;98919.94;;;23.34;66.19
16331;BME280;8275;48.206;16.340;2023-09-19T07:00:41;98914.91;;;23.40;66.16
16331;BME280;8275;48.206;16.340;2023-09-19T07:03:09;98905.63;;;23.48;66.10
16331;BME280;8275;48.206;16.340;2023-09-19T07:05:40;98915.50;;;23.57;65.91
16331;BME280;8275;48.206;16.340;2023-09-19T07:08:11;98918.66;;;23.68;66.04
16331;BME280;8275;48.206;16.340;2023-09-19T07:10:41;98910.13;;;23.77;65.72
16331;BME280;8275;48.206;16.340;2023-09-19T07:13:16;98917.69;;;23.88;65.44
16331;BME280;8275;48.206;16.340;2023-09-19T07:15:45;98913.94;;;23.96;65.11
16331;BME280;8275;48.206;16.340;2023-09-19T07:18:18;98924.19;;;24.04;64.26
16331;BME280;8275;48.206;16.340;2023-09-19T07:20:47;98925.47;;;24.07;63.52
16331;BME280;8275;48.206;16.340;2023-09-19T07:23:21;98932.72;;;24.08;63.13
16331;BME280;8275;48.206;16.340;2023-09-19T07:25:51;98935.63;;;24.11;63.08
16331;BME280;8275;48.206;16.340;2023-09-19T07:28:19;98938.53;;;24.15;62.96
16331;BME280;8275;48.206;16.340;2023-09-19T07:30:48;98940.63;;;24.18;62.56
16331;BME280;8275;48.206;16.340;2023-09-19T07:33:17;98947.50;;;24.20;62.17
16331;BME280;8275;48.206;16.340;2023-09-19T07:35:46;98951.56;;;24.23;61.87
16331;BME280;8275;48.206;16.340;2023-09-19T07:38:15;98956.47;;;24.26;61.37
16331;BME280;8275;48.206;16.340;2023-09-19T07:40:46;98958.09;;;24.27;61.16
16331;BME280;8275;48.206;16.340;2023-09-19T07:43:15;98953.44;;;24.31;60.62
16331;BME280;8275;48.206;16.340;2023-09-19T07:45:45;98957.84;;;24.32;59.96
16331;BME280;8275;48.206;16.340;2023-09-19T07:48:14;98955.97;;;24.36;59.99
16331;BME280;8275;48.206;16.340;2023-09-19T07:50:43;98958.97;;;24.43;59.69
16331;BME280;8275;48.206;16.340;2023-09-19T07:53:12;98954.03;;;24.52;59.55
16331;BME280;8275;48.206;16.340;2023-09-19T07:55:43;98961.94;;;24.62;59.33
16331;BME280;8275;48.206;16.340;2023-09-19T07:58:17;98964.69;;;24.74;58.55
16331;BME280;8275;48.206;16.340;2023-09-19T08:00:45;98972.28;;;24.86;58.36
16331;BME280;8275;48.206;16.340;2023-09-19T08:03:14;98964.97;;;24.97;58.15
16331;BME280;8275;48.206;16.340;2023-09-19T08:05:44;98972.94;;;25.10;57.89
16331;BME280;8275;48.206;16.340;2023-09-19T08:08:13;98979.38;;;25.27;57.25
16331;BME280;8275;48.206;16.340;2023-09-19T08:10:43;98974.97;;;25.41;56.94
16331;BME280;8275;48.206;16.340;2023-09-19T08:13:15;98976.09;;;25.52;56.47
16331;BME280;8275;48.206;16.340;2023-09-19T08:15:45;98974.72;;;25.62;56.49
16331;BME280;8275;48.206;16.340;2023-09-19T08:18:15;98976.97;;;25.72;55.98
16331;BME280;8275;48.206;16.340;2023-09-19T08:20:49;98986.84;;;25.82;55.33
16331;BME280;8275;48.206;16.340;2023-09-19T08:23:18;98990.72;;;25.93;54.96
16331;BME280;8275;48.206;16.340;2023-09-19T08:25:48;98988.91;;;26.00;55.10
16331;BME280;8275;48.206;16.340;2023-09-19T08:28:18;98984.75;;;26.10;55.08
16331;BME280;8275;48.206;16.340;2023-09-19T08:30:51;98991.78;;;26.19;54.64
16331;BME280;8275;48.206;16.340;2023-09-19T08:33:22;98997.13;;;26.24;53.42
16331;BME280;8275;48.206;16.340;2023-09-19T08:35:51;99010.78;;;26.26;53.01
16331;BME280;8275;48.206;16.340;2023-09-19T08:38:19;99005.25;;;26.29;53.31
16331;BME280;8275;48.206;16.340;2023-09-19T08:40:48;99015.25;;;26.27;53.08
16331;BME280;8275;48.206;16.340;2023-09-19T08:43:21;99014.31;;;26.23;53.09
16331;BME280;8275;48.206;16.340;2023-09-19T08:45:53;99016.31;;;26.22;52.81
16331;BME280;8275;48.206;16.340;2023-09-19T08:48:25;99020.69;;;26.20;52.59
16331;BME280;8275;48.206;16.340;2023-09-19T08:51:00;99015.44;;;26.18;52.46
16331;BME280;8275;48.206;16.340;2023-09-19T08:53:42;99015.81;;;26.17;51.83
16331;BME280;8275;48.206;16.340;2023-09-19T08:56:14;99021.03;;;26.18;51.47
16331;BME280;8275;48.206;16.340;2023-09-19T08:58:50;99032.28;;;26.18;51.22
16331;BME280;8275;48.206;16.340;2023-09-19T09:01:21;99024.66;;;26.19;50.31
16331;BME280;8275;48.206;16.340;2023-09-19T09:03:54;99023.78;;;26.15;49.75
16331;BME280;8275;48.206;16.340;2023-09-19T09:06:25;99026.88;;;26.10;49.99
16331;BME280;8275;48.206;16.340;2023-09-19T09:08:55;99019.50;;;26.05;49.97
16331;BME280;8275;48.206;16.340;2023-09-19T09:11:24;99028.63;;;26.02;49.85
16331;BME280;8275;48.206;16.340;2023-09-19T09:13:56;99032.28;;;26.03;50.38
16331;BME280;8275;48.206;16.340;2023-09-19T09:16:25;99029.53;;;26.06;50.25
16331;BME280;8275;48.206;16.340;2023-09-19T09:18:54;99035.28;;;26.10;49.77
16331;BME280;8275;48.206;16.340;2023-09-19T09:21:25;99026.94;;;26.13;50.09
16331;BME280;8275;48.206;16.340;2023-09-19T09:23:54;99032.28;;;26.18;50.01
16331;BME280;8275;48.206;16.340;2023-09-19T09:26:41;99036.78;;;26.23;49.96
16331;BME280;8275;48.206;16.340;2023-09-19T09:29:11;99036.63;;;26.31;49.28
16331;BME280;8275;48.206;16.340;2023-09-19T09:31:45;99042.91;;;26.44;49.65
16331;BME280;8275;48.206;16.340;2023-09-19T09:34:16;99037.63;;;26.58;49.58
16331;BME280;8275;48.206;16.340;2023-09-19T09:36:48;99042.34;;;26.73;49.08
16331;BME280;8275;48.206;16.340;2023-09-19T09:39:30;99033.81;;;26.85;48.14
16331;BME280;8275;48.206;16.340;2023-09-19T09:41:59;99043.88;;;27.05;48.41
16331;BME280;8275;48.206;16.340;2023-09-19T09:44:34;99038.97;;;27.22;47.54
16331;BME280;8275;48.206;16.340;2023-09-19T09:47:02;99033.34;;;27.41;47.44
16331;BME280;8275;48.206;16.340;2023-09-19T09:50:00;99045.75;;;27.59;47.36
16331;BME280;8275;48.206;16.340;2023-09-19T09:52:45;99047.31;;;27.79;47.16
16331;BME280;8275;48.206;16.340;2023-09-19T09:55:14;99037.66;;;27.99;46.68
16331;BME280;8275;48.206;16.340;2023-09-19T09:57:43;99046.38;;;28.17;46.14
16331;BME280;8275;48.206;16.340;2023-09-19T10:00:13;99050.25;;;28.31;46.26
16331;BME280;8275;48.206;16.340;2023-09-19T10:02:48;99043.22;;;28.48;45.57
16331;BME280;8275;48.206;16.340;2023-09-19T10:05:18;99047.84;;;28.60;45.20
16331;BME280;8275;48.206;16.340;2023-09-19T10:07:55;99048.03;;;28.70;45.07
16331;BME280;8275;48.206;16.340;2023-09-19T10:10:31;99042.06;;;28.75;44.55
16331;BME280;8275;48.206;16.340;2023-09-19T10:13:21;99043.72;;;28.80;44.47
16331;BME280;8275;48.206;16.340;2023-09-19T10:15:52;99043.00;;;28.86;44.13
16331;BME280;8275;48.206;16.340;2023-09-19T10:18:24;99054.75;;;28.92;43.56
16331;BME280;8275;48.206;16.340;2023-09-19T10:20:53;99053.22;;;28.98;43.50
16331;BME280;8275;48.206;16.340;2023-09-19T10:23:22;99048.44;;;29.02;42.27
16331;BME280;8275;48.206;16.340;2023-09-19T10:25:53;99043.69;;;29.09;43.21
16331;BME280;8275;48.206;16.340;2023-09-19T10:28:22;99042.66;;;29.21;43.04
16331;BME280;8275;48.206;16.340;2023-09-19T10:30:53;99043.25;;;29.37;43.04
16331;BME280;8275;48.206;16.340;2023-09-19T10:33:24;99034.97;;;29.55;41.26
16331;BME280;8275;48.206;16.340;2023-09-19T10:35:54;99030.69;;;29.71;41.69
16331;BME280;8275;48.206;16.340;2023-09-19T10:38:27;99025.28;;;29.93;41.32
16331;BME280;8275;48.206;16.340;2023-09-19T10:40:57;99034.28;;;30.12;41.21
16331;BME280;8275;48.206;16.340;2023-09-19T10:43:31;99038.06;;;30.30;41.25
16331;BME280;8275;48.206;16.340;2023-09-19T10:46:08;99031.41;;;30.56;40.99
16331;BME280;8275;48.206;16.340;2023-09-19T10:48:39;99030.34;;;30.85;40.75
16331;BME280;8275;48.206;16.340;2023-09-19T10:51:11;99031.75;;;31.19;39.59
16331;BME280;8275;48.206;16.340;2023-09-19T10:53:47;99024.19;;;31.55;38.91
16331;BME280;8275;48.206;16.340;2023-09-19T10:56:25;99029.47;;;31.92;37.80
16331;BME280;8275;48.206;16.340;2023-09-19T10:59:07;99033.94;;;32.32;38.53
16331;BME280;8275;48.206;16.340;2023-09-19T11:01:46;99021.31;;;32.82;37.63
16331;BME280;8275;48.206;16.340;2023-09-19T11:04:29;99023.63;;;33.12;33.69
16331;BME280;8275;48.206;16.340;2023-09-19T11:07:03;99017.16;;;33.15;34.05
16331;BME280;8275;48.206;16.340;2023-09-19T11:09:49;99041.47;;;33.09;32.41
16331;BME280;8275;48.206;16.340;2023-09-19T11:12:50;99035.13;;;32.73;32.40
16331;BME280;8275;48.206;16.340;2023-09-19T11:18:57;99042.41;;;31.82;33.65
16331;BME280;8275;48.206;16.340;2023-09-19T11:21:53;99038.72;;;31.50;34.17
16331;BME280;8275;48.206;16.340;2023-09-19T11:24:32;99035.81;;;31.33;34.59
16331;BME280;8275;48.206;16.340;2023-09-19T11:27:12;99039.00;;;31.20;35.04
16331;BME280;8275;48.206;16.340;2023-09-19T11:29:42;99035.78;;;31.18;34.92
16331;BME280;8275;48.206;16.340;2023-09-19T11:32:10;99034.97;;;31.18;35.33
16331;BME280;8275;48.206;16.340;2023-09-19T11:34:47;99032.53;;;31.16;35.80
16331;BME280;8275;48.206;16.340;2023-09-19T11:38:00;99028.88;;;31.05;34.67
16331;BME280;8275;48.206;16.340;2023-09-19T11:40:46;99018.78;;;31.08;34.60
16331;BME280;8275;48.206;16.340;2023-09-19T11:43:33;99009.94;;;31.34;35.27
16331;BME280;8275;48.206;16.340;2023-09-19T11:46:08;99012.50;;;31.99;34.86
16331;BME280;8275;48.206;16.340;2023-09-19T11:48:39;99009.56;;;32.73;34.06
16331;BME280;8275;48.206;16.340;2023-09-19T11:51:19;99005.97;;;33.56;33.91
16331;BME280;8275;48.206;16.340;2023-09-19T11:53:51;99013.94;;;34.26;33.04
16331;BME280;8275;48.206;16.340;2023-09-19T11:56:21;99003.19;;;34.85;31.93
16331;BME280;8275;48.206;16.340;2023-09-19T11:58:53;98994.34;;;35.40;31.06
16331;BME280;8275;48.206;16.340;2023-09-19T12:01:25;98990.31;;;35.64;29.13
16331;BME280;8275;48.206;16.340;2023-09-19T12:03:58;98997.47;;;35.76;29.57
16331;BME280;8275;48.206;16.340;2023-09-19T12:06:30;99004.50;;;35.94;29.24
16331;BME280;8275;48.206;16.340;2023-09-19T12:09:00;99009.72;;;36.26;29.42
16331;BME280;8275;48.206;16.340;2023-09-19T12:11:33;99011.66;;;36.76;28.91
16331;BME280;8275;48.206;16.340;2023-09-19T12:14:12;99007.34;;;37.26;28.28
16331;BME280;8275;48.206;16.340;2023-09-19T12:16:54;99000.78;;;37.81;26.81
16331;BME280;8275;48.206;16.340;2023-09-19T12:19:23;98999.28;;;38.25;26.37
16331;BME280;8275;48.206;16.340;2023-09-19T12:21:58;98999.25;;;38.57;26.15
16331;BME280;8275;48.206;16.340;2023-09-19T12:24:27;99009.19;;;38.98;24.75
16331;BME280;8275;48.206;16.340;2023-09-19T12:27:03;99012.63;;;39.34;25.16
16331;BME280;8275;48.206;16.340;2023-09-19T12:29:44;99013.59;;;39.69;24.26
16331;BME280;8275;48.206;16.340;2023-09-19T12:32:13;99008.53;;;39.98;23.45
16331;BME280;8275;48.206;16.340;2023-09-19T12:34:51;99000.81;;;40.20;23.40
16331;BME280;8275;48.206;16.340;2023-09-19T12:37:23;99017.22;;;40.45;22.74
16331;BME280;8275;48.206;16.340;2023-09-19T12:40:05;99016.84;;;40.55;22.49
16331;BME280;8275;48.206;16.340;2023-09-19T12:42:44;99014.88;;;40.65;20.94
16331;BME280;8275;48.206;16.340;2023-09-19T12:45:14;99024.63;;;40.68;21.16
16331;BME280;8275;48.206;16.340;2023-09-19T12:48:18;99030.28;;;40.80;21.78
16331;BME280;8275;48.206;16.340;2023-09-19T12:51:03;99037.56;;;41.06;21.58
16331;BME280;8275;48.206;16.340;2023-09-19T12:53:37;99038.16;;;41.45;20.37
16331;BME280;8275;48.206;16.340;2023-09-19T12:56:10;99031.00;;;41.71;20.60
16331;BME280;8275;48.206;16.340;2023-09-19T12:58:51;99033.66;;;41.96;20.71
16331;BME280;8275;48.206;16.340;2023-09-19T13:01:23;99039.66;;;42.11;18.34
16331;BME280;8275;48.206;16.340;2023-09-19T13:04:14;99036.19;;;42.16;19.06
16331;BME280;8275;48.206;16.340;2023-09-19T13:06:46;99035.25;;;42.46;19.39
16331;BME280;8275;48.206;16.340;2023-09-19T13:09:20;99027.81;;;42.85;18.96
16331;BME280;8275;48.206;16.340;2023-09-19T13:11:49;99031.50;;;43.21;17.75
16331;BME280;8275;48.206;16.340;2023-09-19T13:14:22;99029.56;;;43.37;17.77
16331;BME280;8275;48.206;16.340;2023-09-19T13:17:00;99024.72;;;43.43;17.93
16331;BME280;8275;48.206;16.340;2023-09-19T13:19:37;99029.66;;;43.60;18.07
16331;BME280;8275;48.206;16.340;2023-09-19T13:22:39;99027.09;;;44.04;17.41
16331;BME280;8275;48.206;16.340;2023-09-19T13:25:15;99021.94;;;44.17;17.23
16331;BME280;8275;48.206;16.340;2023-09-19T13:27:47;99028.19;;;44.48;16.26
16331;BME280;8275;48.206;16.340;2023-09-19T13:30:19;99019.78;;;44.74;16.02
16331;BME280;8275;48.206;16.340;2023-09-19T13:32:48;99030.06;;;44.99;16.16
16331;BME280;8275;48.206;16.340;2023-09-19T13:35:17;99032.28;;;45.18;15.42